Terminal Aerodrome Forecast
Issued by NWS

Home | Current Version | Previous Version | Text Only | Print | Product List | Glossary On
Versions: 1 2 3 4 5 6 7 8 9 10 11 12
000
FTUS45 KRIW 101100
TAFCOD
TAF
KCOD 101132Z 1012/1112 VRB06KT P6SM SCT100 BKN150
     FM101600 36007KT P6SM VCSH SCT070 BKN120
     FM102200 VRB10KT P6SM VCTS SCT070CB BKN120
     FM110200 VRB06KT P6SM VCSH SCT100 BKN150
     FM110800 22006KT P6SM SCT120
      AMD LTD TO CLD VIS AND WIND=

USA.gov is the U.S. government's official web portal to all federal, state and local government web resources and services.